sensor_id;sensor_type;location;lat;lon;timestamp;pressure;altitude;pressure_sealevel;temperature;humidity
58668;BME280;59852;43.086;25.634;2023-03-19T00:00:10;99539.16;;;6.18;nan
58668;BME280;59852;43.086;25.634;2023-03-19T00:02:36;99543.53;;;6.17;nan
58668;BME280;59852;43.086;25.634;2023-03-19T00:05:02;99538.81;;;6.27;nan
58668;BME280;59852;43.086;25.634;2023-03-19T00:07:28;99545.50;;;6.32;nan
58668;BME280;59852;43.086;25.634;2023-03-19T00:09:53;99536.19;;;6.27;nan
58668;BME280;59852;43.086;25.634;2023-03-19T00:12:19;99535.91;;;6.35;nan
58668;BME280;59852;43.086;25.634;2023-03-19T00:14:45;99530.06;;;6.29;nan
58668;BME280;59852;43.086;25.634;2023-03-19T00:17:10;99531.59;;;6.33;nan
58668;BME280;59852;43.086;25.634;2023-03-19T00:19:36;99527.19;;;6.36;nan
58668;BME280;59852;43.086;25.634;2023-03-19T00:22:01;99530.47;;;6.41;nan
58668;BME280;59852;43.086;25.634;2023-03-19T00:24:26;99536.28;;;6.25;nan
58668;BME280;59852;43.086;25.634;2023-03-19T00:26:53;99532.97;;;6.42;nan
58668;BME280;59852;43.086;25.634;2023-03-19T00:29:18;99533.63;;;6.47;nan
58668;BME280;59852;43.086;25.634;2023-03-19T00:31:43;99534.97;;;6.15;nan
58668;BME280;59852;43.086;25.634;2023-03-19T00:34:09;99536.09;;;6.30;nan
58668;BME280;59852;43.086;25.634;2023-03-19T00:36:35;99534.59;;;6.24;nan
58668;BME280;59852;43.086;25.634;2023-03-19T00:39:01;99529.59;;;6.20;nan
58668;BME280;59852;43.086;25.634;2023-03-19T00:41:27;99530.16;;;6.26;nan
58668;BME280;59852;43.086;25.634;2023-03-19T00:43:53;99525.13;;;6.44;nan
58668;BME280;59852;43.086;25.634;2023-03-19T00:46:19;99526.66;;;6.27;nan
58668;BME280;59852;43.086;25.634;2023-03-19T00:48:45;99527.47;;;6.29;nan
58668;BME280;59852;43.086;25.634;2023-03-19T00:51:10;99527.94;;;6.39;nan
58668;BME280;59852;43.086;25.634;2023-03-19T00:53:39;99537.84;;;6.29;nan
58668;BME280;59852;43.086;25.634;2023-03-19T00:56:06;99525.81;;;6.27;nan
58668;BME280;59852;43.086;25.634;2023-03-19T00:58:32;99527.00;;;6.40;nan
58668;BME280;59852;43.086;25.634;2023-03-19T01:00:57;99527.72;;;6.44;nan
58668;BME280;59852;43.086;25.634;2023-03-19T01:03:22;99526.66;;;6.27;nan
58668;BME280;59852;43.086;25.634;2023-03-19T01:05:48;99534.38;;;6.29;nan
58668;BME280;59852;43.086;25.634;2023-03-19T01:08:14;99527.31;;;6.32;nan
58668;BME280;59852;43.086;25.634;2023-03-19T01:10:40;99526.88;;;6.43;nan
58668;BME280;59852;43.086;25.634;2023-03-19T01:13:05;99524.22;;;6.02;nan
58668;BME280;59852;43.086;25.634;2023-03-19T01:15:34;99526.09;;;6.21;nan
58668;BME280;59852;43.086;25.634;2023-03-19T01:17:59;99524.97;;;6.26;nan
58668;BME280;59852;43.086;25.634;2023-03-19T01:20:25;99528.00;;;6.16;nan
58668;BME280;59852;43.086;25.634;2023-03-19T01:22:51;99523.41;;;6.22;nan
58668;BME280;59852;43.086;25.634;2023-03-19T01:25:16;99526.47;;;6.32;nan
58668;BME280;59852;43.086;25.634;2023-03-19T01:27:42;99527.47;;;6.29;nan
58668;BME280;59852;43.086;25.634;2023-03-19T01:30:07;99524.69;;;6.12;nan
58668;BME280;59852;43.086;25.634;2023-03-19T01:32:33;99526.56;;;6.09;nan
58668;BME280;59852;43.086;25.634;2023-03-19T01:34:58;99528.44;;;5.83;nan
58668;BME280;59852;43.086;25.634;2023-03-19T01:37:23;99531.34;;;5.97;nan
58668;BME280;59852;43.086;25.634;2023-03-19T01:39:49;99535.59;;;6.00;nan
58668;BME280;59852;43.086;25.634;2023-03-19T01:42:14;99534.72;;;6.21;nan
58668;BME280;59852;43.086;25.634;2023-03-19T01:44:40;99541.06;;;6.14;nan
58668;BME280;59852;43.086;25.634;2023-03-19T01:50:00;99546.88;;;6.21;nan
58668;BME280;59852;43.086;25.634;2023-03-19T01:52:27;99543.94;;;6.28;nan
58668;BME280;59852;43.086;25.634;2023-03-19T01:54:53;99543.94;;;6.28;nan
58668;BME280;59852;43.086;25.634;2023-03-19T01:57:20;99542.19;;;6.29;nan
58668;BME280;59852;43.086;25.634;2023-03-19T01:59:56;99536.41;;;6.22;nan
58668;BME280;59852;43.086;25.634;2023-03-19T02:02:28;99529.19;;;6.29;nan
58668;BME280;59852;43.086;25.634;2023-03-19T02:05:11;99540.72;;;6.01;nan
58668;BME280;59852;43.086;25.634;2023-03-19T02:07:37;99542.47;;;6.01;nan
58668;BME280;59852;43.086;25.634;2023-03-19T02:10:04;99538.19;;;6.00;nan
58668;BME280;59852;43.086;25.634;2023-03-19T02:12:31;99544.66;;;5.66;nan
58668;BME280;59852;43.086;25.634;2023-03-19T02:14:56;99543.22;;;5.81;nan
58668;BME280;59852;43.086;25.634;2023-03-19T02:17:22;99541.16;;;5.89;nan
58668;BME280;59852;43.086;25.634;2023-03-19T02:19:48;99545.69;;;5.84;nan
58668;BME280;59852;43.086;25.634;2023-03-19T02:22:17;99553.47;;;5.84;nan
58668;BME280;59852;43.086;25.634;2023-03-19T02:25:05;99545.69;;;5.62;nan
58668;BME280;59852;43.086;25.634;2023-03-19T02:27:34;99546.31;;;5.45;nan
58668;BME280;59852;43.086;25.634;2023-03-19T02:29:59;99550.63;;;5.92;nan
58668;BME280;59852;43.086;25.634;2023-03-19T02:32:25;99545.69;;;5.62;nan
58668;BME280;59852;43.086;25.634;2023-03-19T02:34:51;99547.25;;;5.88;nan
58668;BME280;59852;43.086;25.634;2023-03-19T02:37:18;99547.38;;;5.85;nan
58668;BME280;59852;43.086;25.634;2023-03-19T02:42:11;99550.44;;;5.96;nan
58668;BME280;59852;43.086;25.634;2023-03-19T02:44:37;99552.88;;;5.99;nan
58668;BME280;59852;43.086;25.634;2023-03-19T02:47:04;99554.53;;;6.02;nan
58668;BME280;59852;43.086;25.634;2023-03-19T02:49:29;99549.59;;;5.96;nan
58668;BME280;59852;43.086;25.634;2023-03-19T02:51:55;99554.63;;;6.00;nan
58668;BME280;59852;43.086;25.634;2023-03-19T02:54:20;99539.53;;;6.09;nan
58668;BME280;59852;43.086;25.634;2023-03-19T02:56:46;99554.03;;;6.14;nan
58668;BME280;59852;43.086;25.634;2023-03-19T02:59:11;99562.75;;;6.13;nan
58668;BME280;59852;43.086;25.634;2023-03-19T03:01:37;99551.69;;;6.08;nan
58668;BME280;59852;43.086;25.634;2023-03-19T03:04:02;99553.03;;;5.96;nan
58668;BME280;59852;43.086;25.634;2023-03-19T03:06:28;99556.47;;;5.97;nan
58668;BME280;59852;43.086;25.634;2023-03-19T03:08:54;99556.84;;;5.86;nan
58668;BME280;59852;43.086;25.634;2023-03-19T03:11:20;99559.84;;;5.99;nan
58668;BME280;59852;43.086;25.634;2023-03-19T03:13:46;99556.72;;;6.13;nan
58668;BME280;59852;43.086;25.634;2023-03-19T03:16:12;99559.78;;;6.22;nan
58668;BME280;59852;43.086;25.634;2023-03-19T03:18:37;99546.06;;;5.97;nan
58668;BME280;59852;43.086;25.634;2023-03-19T03:21:02;99563.94;;;6.26;nan
58668;BME280;59852;43.086;25.634;2023-03-19T03:23:28;99559.72;;;6.24;nan
58668;BME280;59852;43.086;25.634;2023-03-19T03:25:53;99570.72;;;6.09;nan
58668;BME280;59852;43.086;25.634;2023-03-19T03:28:18;99571.44;;;6.12;nan
58668;BME280;59852;43.086;25.634;2023-03-19T03:30:44;99565.75;;;6.24;nan
58668;BME280;59852;43.086;25.634;2023-03-19T03:33:10;99569.50;;;6.17;nan
58668;BME280;59852;43.086;25.634;2023-03-19T03:35:35;99574.06;;;5.89;nan
58668;BME280;59852;43.086;25.634;2023-03-19T03:38:01;99569.00;;;5.86;nan
58668;BME280;59852;43.086;25.634;2023-03-19T03:40:27;99577.03;;;5.56;nan
58668;BME280;59852;43.086;25.634;2023-03-19T03:42:52;99575.97;;;6.07;nan
58668;BME280;59852;43.086;25.634;2023-03-19T03:45:18;99583.94;;;6.02;nan
58668;BME280;59852;43.086;25.634;2023-03-19T03:47:43;99579.66;;;6.01;nan
58668;BME280;59852;43.086;25.634;2023-03-19T03:50:09;99583.66;;;5.87;nan
58668;BME280;59852;43.086;25.634;2023-03-19T03:52:35;99585.66;;;5.80;nan
58668;BME280;59852;43.086;25.634;2023-03-19T03:55:02;99582.81;;;5.41;nan
58668;BME280;59852;43.086;25.634;2023-03-19T03:57:27;99582.50;;;5.72;nan
58668;BME280;59852;43.086;25.634;2023-03-19T03:59:53;99578.22;;;5.71;nan
58668;BME280;59852;43.086;25.634;2023-03-19T04:02:18;99575.56;;;5.72;nan
58668;BME280;59852;43.086;25.634;2023-03-19T04:04:44;99575.84;;;5.65;nan
58668;BME280;59852;43.086;25.634;2023-03-19T04:07:09;99575.63;;;5.71;nan
58668;BME280;59852;43.086;25.634;2023-03-19T04:09:34;99564.13;;;5.55;nan
58668;BME280;59852;43.086;25.634;2023-03-19T04:12:00;99565.91;;;5.76;nan
58668;BME280;59852;43.086;25.634;2023-03-19T04:14:26;99567.09;;;5.67;nan
58668;BME280;59852;43.086;25.634;2023-03-19T04:16:51;99565.75;;;5.57;nan
58668;BME280;59852;43.086;25.634;2023-03-19T04:19:17;99563.78;;;5.64;nan
58668;BME280;59852;43.086;25.634;2023-03-19T04:21:43;99562.91;;;5.87;nan
58668;BME280;59852;43.086;25.634;2023-03-19T04:24:09;99563.69;;;5.43;nan
58668;BME280;59852;43.086;25.634;2023-03-19T04:26:34;99562.34;;;5.79;nan
58668;BME280;59852;43.086;25.634;2023-03-19T04:29:00;99564.44;;;5.92;nan
58668;BME280;59852;43.086;25.634;2023-03-19T04:31:26;99563.53;;;5.70;nan
58668;BME280;59852;43.086;25.634;2023-03-19T04:33:51;99564.28;;;5.73;nan
58668;BME280;59852;43.086;25.634;2023-03-19T04:36:17;99561.13;;;5.65;nan
58668;BME280;59852;43.086;25.634;2023-03-19T04:38:43;99567.88;;;5.93;nan
58668;BME280;59852;43.086;25.634;2023-03-19T04:41:08;99569.78;;;5.88;nan
58668;BME280;59852;43.086;25.634;2023-03-19T04:43:34;99569.22;;;5.80;nan
58668;BME280;59852;43.086;25.634;2023-03-19T04:46:00;99573.16;;;5.90;nan
58668;BME280;59852;43.086;25.634;2023-03-19T04:48:25;99569.78;;;5.88;nan
58668;BME280;59852;43.086;25.634;2023-03-19T04:50:51;99568.69;;;5.71;nan
58668;BME280;59852;43.086;25.634;2023-03-19T04:53:17;99572.78;;;6.00;nan
58668;BME280;59852;43.086;25.634;2023-03-19T04:55:44;99574.31;;;5.83;nan
58668;BME280;59852;43.086;25.634;2023-03-19T04:58:10;99579.19;;;6.14;nan
58668;BME280;59852;43.086;25.634;2023-03-19T05:00:35;99570.38;;;6.38;nan
58668;BME280;59852;43.086;25.634;2023-03-19T05:03:01;99564.50;;;6.55;nan
58668;BME280;59852;43.086;25.634;2023-03-19T05:05:26;99568.69;;;6.59;nan
58668;BME280;59852;43.086;25.634;2023-03-19T05:07:52;99572.00;;;7.97;nan
58668;BME280;59852;43.086;25.634;2023-03-19T05:10:17;99560.91;;;8.99;nan
58668;BME280;59852;43.086;25.634;2023-03-19T05:12:42;99565.41;;;9.93;nan
58668;BME280;59852;43.086;25.634;2023-03-19T05:15:08;99564.47;;;9.78;nan
58668;BME280;59852;43.086;25.634;2023-03-19T05:17:33;99563.97;;;9.88;nan
58668;BME280;59852;43.086;25.634;2023-03-19T05:20:00;99557.31;;;9.66;nan
58668;BME280;59852;43.086;25.634;2023-03-19T05:22:26;99558.69;;;8.74;nan
58668;BME280;59852;43.086;25.634;2023-03-19T05:24:51;99565.22;;;7.38;nan
58668;BME280;59852;43.086;25.634;2023-03-19T05:27:17;99569.69;;;6.75;nan
58668;BME280;59852;43.086;25.634;2023-03-19T05:29:42;99570.53;;;6.76;nan
58668;BME280;59852;43.086;25.634;2023-03-19T05:32:08;99576.97;;;6.47;nan
58668;BME280;59852;43.086;25.634;2023-03-19T05:34:34;99577.28;;;6.39;nan
58668;BME280;59852;43.086;25.634;2023-03-19T05:37:00;99578.16;;;6.38;nan
58668;BME280;59852;43.086;25.634;2023-03-19T05:39:25;99577.00;;;6.25;nan
58668;BME280;59852;43.086;25.634;2023-03-19T05:41:50;99578.81;;;6.23;nan
58668;BME280;59852;43.086;25.634;2023-03-19T05:44:16;99578.97;;;6.18;nan
58668;BME280;59852;43.086;25.634;2023-03-19T05:46:42;99579.41;;;6.29;nan
58668;BME280;59852;43.086;25.634;2023-03-19T05:49:07;99578.94;;;6.62;nan
58668;BME280;59852;43.086;25.634;2023-03-19T05:51:33;99576.47;;;5.71;nan
58668;BME280;59852;43.086;25.634;2023-03-19T05:53:58;99583.66;;;6.10;nan
58668;BME280;59852;43.086;25.634;2023-03-19T05:56:24;99571.56;;;6.31;nan
58668;BME280;59852;43.086;25.634;2023-03-19T05:58:49;99581.31;;;6.46;nan
58668;BME280;59852;43.086;25.634;2023-03-19T06:01:15;99574.81;;;6.56;nan
58668;BME280;59852;43.086;25.634;2023-03-19T06:03:40;99581.69;;;6.79;nan
58668;BME280;59852;43.086;25.634;2023-03-19T06:06:06;99567.75;;;7.01;nan
58668;BME280;59852;43.086;25.634;2023-03-19T06:08:31;99568.16;;;7.50;nan
58668;BME280;59852;43.086;25.634;2023-03-19T06:10:57;99560.19;;;7.71;nan
58668;BME280;59852;43.086;25.634;2023-03-19T06:13:22;99563.47;;;7.94;nan
58668;BME280;59852;43.086;25.634;2023-03-19T06:15:48;99562.38;;;7.81;nan
58668;BME280;59852;43.086;25.634;2023-03-19T06:18:14;99558.66;;;7.30;nan
58668;BME280;59852;43.086;25.634;2023-03-19T06:20:39;99566.69;;;7.63;nan
58668;BME280;59852;43.086;25.634;2023-03-19T06:23:05;99563.09;;;8.20;nan
58668;BME280;59852;43.086;25.634;2023-03-19T06:25:30;99564.84;;;7.46;nan
58668;BME280;59852;43.086;25.634;2023-03-19T06:27:56;99563.50;;;7.75;nan
58668;BME280;59852;43.086;25.634;2023-03-19T06:30:21;99560.69;;;7.61;nan
58668;BME280;59852;43.086;25.634;2023-03-19T06:32:46;99554.34;;;8.21;nan
58668;BME280;59852;43.086;25.634;2023-03-19T06:35:12;99562.16;;;8.40;nan
58668;BME280;59852;43.086;25.634;2023-03-19T06:37:37;99556.31;;;8.52;nan
58668;BME280;59852;43.086;25.634;2023-03-19T06:40:03;99559.22;;;7.74;nan
58668;BME280;59852;43.086;25.634;2023-03-19T06:42:29;99554.22;;;7.88;nan
58668;BME280;59852;43.086;25.634;2023-03-19T06:44:55;99563.75;;;8.43;nan
58668;BME280;59852;43.086;25.634;2023-03-19T06:47:20;99558.84;;;8.37;nan
58668;BME280;59852;43.086;25.634;2023-03-19T06:49:45;99568.97;;;8.77;nan
58668;BME280;59852;43.086;25.634;2023-03-19T06:52:11;99560.41;;;8.75;nan
58668;BME280;59852;43.086;25.634;2023-03-19T06:54:36;99562.75;;;8.80;nan
58668;BME280;59852;43.086;25.634;2023-03-19T06:57:01;99569.69;;;8.46;nan
58668;BME280;59852;43.086;25.634;2023-03-19T06:59:27;99572.81;;;8.87;nan
58668;BME280;59852;43.086;25.634;2023-03-19T07:01:52;99566.38;;;8.77;nan
58668;BME280;59852;43.086;25.634;2023-03-19T07:04:17;99566.75;;;8.87;nan
58668;BME280;59852;43.086;25.634;2023-03-19T07:06:43;99567.91;;;8.64;nan
58668;BME280;59852;43.086;25.634;2023-03-19T07:09:08;99579.09;;;8.49;nan
58668;BME280;59852;43.086;25.634;2023-03-19T07:11:34;99579.41;;;8.77;nan
58668;BME280;59852;43.086;25.634;2023-03-19T07:13:59;99575.97;;;8.59;nan
58668;BME280;59852;43.086;25.634;2023-03-19T07:16:25;99579.16;;;8.65;nan
58668;BME280;59852;43.086;25.634;2023-03-19T07:18:50;99582.38;;;8.35;nan
58668;BME280;59852;43.086;25.634;2023-03-19T07:21:15;99576.88;;;8.76;nan
58668;BME280;59852;43.086;25.634;2023-03-19T07:23:41;99575.78;;;8.80;nan
58668;BME280;59852;43.086;25.634;2023-03-19T07:26:06;99570.59;;;8.80;nan
58668;BME280;59852;43.086;25.634;2023-03-19T07:28:32;99571.41;;;8.63;nan
58668;BME280;59852;43.086;25.634;2023-03-19T07:30:57;99567.16;;;9.12;nan
58668;BME280;59852;43.086;25.634;2023-03-19T07:33:22;99568.72;;;9.32;nan
58668;BME280;59852;43.086;25.634;2023-03-19T07:35:48;99560.34;;;9.59;nan
58668;BME280;59852;43.086;25.634;2023-03-19T07:38:13;99567.84;;;9.81;nan
58668;BME280;59852;43.086;25.634;2023-03-19T07:40:39;99563.13;;;9.71;nan
58668;BME280;59852;43.086;25.634;2023-03-19T07:43:04;99567.34;;;9.74;nan
58668;BME280;59852;43.086;25.634;2023-03-19T07:45:29;99560.09;;;9.95;nan
58668;BME280;59852;43.086;25.634;2023-03-19T07:47:55;99551.72;;;9.25;nan
58668;BME280;59852;43.086;25.634;2023-03-19T07:50:20;99555.94;;;9.91;nan
58668;BME280;59852;43.086;25.634;2023-03-19T07:52:46;99554.63;;;10.75;nan
58668;BME280;59852;43.086;25.634;2023-03-19T07:55:12;99547.97;;;9.78;nan
58668;BME280;59852;43.086;25.634;2023-03-19T07:57:37;99552.16;;;10.58;nan
58668;BME280;59852;43.086;25.634;2023-03-19T08:00:03;99545.56;;;10.81;nan
58668;BME280;59852;43.086;25.634;2023-03-19T08:02:28;99543.75;;;10.53;nan
58668;BME280;59852;43.086;25.634;2023-03-19T08:04:54;99552.06;;;9.82;nan
58668;BME280;59852;43.086;25.634;2023-03-19T08:07:19;99552.59;;;10.50;nan
58668;BME280;59852;43.086;25.634;2023-03-19T08:09:45;99540.44;;;11.08;nan
58668;BME280;59852;43.086;25.634;2023-03-19T08:12:11;99544.75;;;11.52;nan
58668;BME280;59852;43.086;25.634;2023-03-19T08:14:37;99549.63;;;11.43;nan
58668;BME280;59852;43.086;25.634;2023-03-19T08:17:02;99534.25;;;11.37;nan
58668;BME280;59852;43.086;25.634;2023-03-19T08:19:28;99534.38;;;11.77;nan
58668;BME280;59852;43.086;25.634;2023-03-19T08:21:53;99537.78;;;11.65;nan
58668;BME280;59852;43.086;25.634;2023-03-19T08:24:19;99538.47;;;12.10;nan
58668;BME280;59852;43.086;25.634;2023-03-19T08:26:44;99539.31;;;11.26;nan
58668;BME280;59852;43.086;25.634;2023-03-19T08:29:10;99537.78;;;11.65;nan
58668;BME280;59852;43.086;25.634;2023-03-19T08:31:35;99535.31;;;11.35;nan
58668;BME280;59852;43.086;25.634;2023-03-19T08:34:01;99527.19;;;11.25;nan
58668;BME280;59852;43.086;25.634;2023-03-19T08:36:29;99526.44;;;10.95;nan
58668;BME280;59852;43.086;25.634;2023-03-19T08:38:54;99533.22;;;10.39;nan
58668;BME280;59852;43.086;25.634;2023-03-19T08:41:21;99534.88;;;10.55;nan
58668;BME280;59852;43.086;25.634;2023-03-19T08:43:46;99521.81;;;11.55;nan
58668;BME280;59852;43.086;25.634;2023-03-19T08:46:12;99517.66;;;11.80;nan
58668;BME280;59852;43.086;25.634;2023-03-19T08:48:37;99515.38;;;11.88;nan
58668;BME280;59852;43.086;25.634;2023-03-19T08:51:02;99512.97;;;11.85;nan
58668;BME280;59852;43.086;25.634;2023-03-19T08:53:28;99510.75;;;11.64;nan
58668;BME280;59852;43.086;25.634;2023-03-19T08:55:56;99505.72;;;11.47;nan
58668;BME280;59852;43.086;25.634;2023-03-19T08:58:21;99505.97;;;11.01;nan
58668;BME280;59852;43.086;25.634;2023-03-19T09:00:47;99497.22;;;11.43;nan
58668;BME280;59852;43.086;25.634;2023-03-19T09:03:13;99500.88;;;12.09;nan
58668;BME280;59852;43.086;25.634;2023-03-19T09:05:38;99497.28;;;11.97;nan
58668;BME280;59852;43.086;25.634;2023-03-19T09:08:04;99490.06;;;12.41;nan
58668;BME280;59852;43.086;25.634;2023-03-19T09:10:29;99488.47;;;12.38;nan
58668;BME280;59852;43.086;25.634;2023-03-19T09:12:55;99487.00;;;12.34;nan
58668;BME280;59852;43.086;25.634;2023-03-19T09:15:20;99484.16;;;12.37;nan
58668;BME280;59852;43.086;25.634;2023-03-19T09:17:48;99477.00;;;12.26;nan
58668;BME280;59852;43.086;25.634;2023-03-19T09:20:14;99487.53;;;11.99;nan
58668;BME280;59852;43.086;25.634;2023-03-19T09:22:39;99477.56;;;11.51;nan
58668;BME280;59852;43.086;25.634;2023-03-19T09:25:05;99474.75;;;12.07;nan
58668;BME280;59852;43.086;25.634;2023-03-19T09:27:30;99475.16;;;12.41;nan
58668;BME280;59852;43.086;25.634;2023-03-19T09:29:56;99467.78;;;12.21;nan
58668;BME280;59852;43.086;25.634;2023-03-19T09:32:21;99462.66;;;12.19;nan
58668;BME280;59852;43.086;25.634;2023-03-19T09:34:47;99459.84;;;11.95;nan
58668;BME280;59852;43.086;25.634;2023-03-19T09:37:12;99465.28;;;11.92;nan
58668;BME280;59852;43.086;25.634;2023-03-19T09:39:38;99458.81;;;12.50;nan
58668;BME280;59852;43.086;25.634;2023-03-19T09:44:38;99456.53;;;12.19;nan
58668;BME280;59852;43.086;25.634;2023-03-19T09:49:50;99442.41;;;12.85;nan
58668;BME280;59852;43.086;25.634;2023-03-19T09:54:48;99439.69;;;12.74;nan
58668;BME280;59852;43.086;25.634;2023-03-19T09:57:16;99425.53;;;13.26;nan
58668;BME280;59852;43.086;25.634;2023-03-19T09:59:42;99429.91;;;13.01;nan
58668;BME280;59852;43.086;25.634;2023-03-19T10:02:19;99427.91;;;12.92;nan
58668;BME280;59852;43.086;25.634;2023-03-19T10:09:41;99412.13;;;13.17;nan
58668;BME280;59852;43.086;25.634;2023-03-19T10:12:15;99420.28;;;13.26;nan
58668;BME280;59852;43.086;25.634;2023-03-19T10:17:17;99411.28;;;13.04;nan
58668;BME280;59852;43.086;25.634;2023-03-19T10:19:54;99412.22;;;13.29;nan
58668;BME280;59852;43.086;25.634;2023-03-19T10:22:23;99403.41;;;13.04;nan
58668;BME280;59852;43.086;25.634;2023-03-19T10:24:49;99400.72;;;12.93;nan
58668;BME280;59852;43.086;25.634;2023-03-19T10:27:21;99397.66;;;12.99;nan
58668;BME280;59852;43.086;25.634;2023-03-19T10:29:46;99410.69;;;13.01;nan
58668;BME280;59852;43.086;25.634;2023-03-19T10:32:31;99404.53;;;13.26;nan
58668;BME280;59852;43.086;25.634;2023-03-19T10:35:00;99400.38;;;12.98;nan
58668;BME280;59852;43.086;25.634;2023-03-19T10:37:29;99393.44;;;12.97;nan
58668;BME280;59852;43.086;25.634;2023-03-19T10:39:56;99391.25;;;13.40;nan
58668;BME280;59852;43.086;25.634;2023-03-19T10:44:48;99376.44;;;13.39;nan
58668;BME280;59852;43.086;25.634;2023-03-19T10:47:15;99371.78;;;13.06;nan
58668;BME280;59852;43.086;25.634;2023-03-19T10:49:41;99370.56;;;12.99;nan
58668;BME280;59852;43.086;25.634;2023-03-19T10:54:44;99361.28;;;13.06;nan
58668;BME280;59852;43.086;25.634;2023-03-19T10:57:19;99354.75;;;13.11;nan
58668;BME280;59852;43.086;25.634;2023-03-19T10:59:45;99351.72;;;13.05;nan
58668;BME280;59852;43.086;25.634;2023-03-19T11:02:17;99346.59;;;13.03;nan
58668;BME280;59852;43.086;25.634;2023-03-19T11:04:43;99344.78;;;13.04;nan
58668;BME280;59852;43.086;25.634;2023-03-19T11:07:09;99338.72;;;13.40;nan
58668;BME280;59852;43.086;25.634;2023-03-19T11:09:37;99342.81;;;12.95;nan
58668;BME280;59852;43.086;25.634;2023-03-19T11:12:12;99344.47;;;13.08;nan
58668;BME280;59852;43.086;25.634;2023-03-19T11:14:41;99338.84;;;13.26;nan
58668;BME280;59852;43.086;25.634;2023-03-19T11:19:41;99331.09;;;13.48;nan
58668;BME280;59852;43.086;25.634;2023-03-19T11:24:39;99326.66;;;13.01;nan
58668;BME280;59852;43.086;25.634;2023-03-19T11:27:06;99321.41;;;13.25;nan
58668;BME280;59852;43.086;25.634;2023-03-19T11:29:32;99329.19;;;13.50;nan
58668;BME280;59852;43.086;25.634;2023-03-19T11:47:09;99300.88;;;13.54;nan
58668;BME280;59852;43.086;25.634;2023-03-19T11:49:41;99297.03;;;13.46;nan
58668;BME280;59852;43.086;25.634;2023-03-19T11:57:08;99289.66;;;13.52;nan
58668;BME280;59852;43.086;25.634;2023-03-19T11:59:39;99292.22;;;13.29;nan
58668;BME280;59852;43.086;25.634;2023-03-19T12:15:26;99285.50;;;13.60;nan
58668;BME280;59852;43.086;25.634;2023-03-19T12:30:31;99263.91;;;13.68;nan
58668;BME280;59852;43.086;25.634;2023-03-19T12:35:32;99261.63;;;13.74;nan
58668;BME280;59852;43.086;25.634;2023-03-19T12:38:02;99269.88;;;13.35;nan
58668;BME280;59852;43.086;25.634;2023-03-19T12:45:51;99259.97;;;13.85;nan
58668;BME280;59852;43.086;25.634;2023-03-19T12:50:46;99251.97;;;13.86;nan
58668;BME280;59852;43.086;25.634;2023-03-19T12:55:59;99243.38;;;13.95;nan
58668;BME280;59852;43.086;25.634;2023-03-19T12:58:36;99238.72;;;13.88;nan
58668;BME280;59852;43.086;25.634;2023-03-19T13:01:06;99240.66;;;13.97;nan
58668;BME280;59852;43.086;25.634;2023-03-19T13:03:42;99244.94;;;13.98;nan
58668;BME280;59852;43.086;25.634;2023-03-19T13:06:17;99237.53;;;13.92;nan
58668;BME280;59852;43.086;25.634;2023-03-19T13:08:46;99230.22;;;13.84;nan
58668;BME280;59852;43.086;25.634;2023-03-19T13:11:18;99231.88;;;13.74;nan
58668;BME280;59852;43.086;25.634;2023-03-19T13:16:32;99222.69;;;14.13;nan
58668;BME280;59852;43.086;25.634;2023-03-19T13:21:31;99227.00;;;14.03;nan
58668;BME280;59852;43.086;25.634;2023-03-19T13:26:28;99206.69;;;14.16;nan
58668;BME280;59852;43.086;25.634;2023-03-19T13:28:59;99210.75;;;13.98;nan
58668;BME280;59852;43.086;25.634;2023-03-19T13:31:25;99207.28;;;14.20;nan
58668;BME280;59852;43.086;25.634;2023-03-19T13:34:05;99214.22;;;14.21;nan
58668;BME280;59852;43.086;25.634;2023-03-19T13:36:34;99198.44;;;13.98;nan
58668;BME280;59852;43.086;25.634;2023-03-19T13:39:00;99201.28;;;13.95;nan
58668;BME280;59852;43.086;25.634;2023-03-19T13:46:40;99186.59;;;14.26;nan
58668;BME280;59852;43.086;25.634;2023-03-19T13:51:44;99184.22;;;13.90;nan
58668;BME280;59852;43.086;25.634;2023-03-19T13:59:29;99184.78;;;14.04;nan
58668;BME280;59852;43.086;25.634;2023-03-19T14:01:55;99177.16;;;14.01;nan
58668;BME280;59852;43.086;25.634;2023-03-19T14:04:33;99177.63;;;13.95;nan
58668;BME280;59852;43.086;25.634;2023-03-19T14:12:08;99172.97;;;13.99;nan
58668;BME280;59852;43.086;25.634;2023-03-19T14:14:38;99171.19;;;13.88;nan
58668;BME280;59852;43.086;25.634;2023-03-19T14:17:04;99168.19;;;13.93;nan
58668;BME280;59852;43.086;25.634;2023-03-19T14:19:29;99169.63;;;13.86;nan
58668;BME280;59852;43.086;25.634;2023-03-19T14:26:51;99165.81;;;13.90;nan
58668;BME280;59852;43.086;25.634;2023-03-19T14:29:17;99158.63;;;13.92;nan
58668;BME280;59852;43.086;25.634;2023-03-19T14:31:50;99165.09;;;13.88;nan
58668;BME280;59852;43.086;25.634;2023-03-19T14:36:51;99165.53;;;14.15;45.32
58668;BME280;59852;43.086;25.634;2023-03-19T14:39:21;99160.78;;;14.09;46.55
58668;BME280;59852;43.086;25.634;2023-03-19T14:41:48;99156.38;;;13.98;45.13
58668;BME280;59852;43.086;25.634;2023-03-19T14:54:50;99150.63;;;13.71;45.21
58668;BME280;59852;43.086;25.634;2023-03-19T14:57:19;99148.97;;;13.70;45.08
58668;BME280;59852;43.086;25.634;2023-03-19T14:59:45;99149.53;;;13.73;45.42
58668;BME280;59852;43.086;25.634;2023-03-19T15:04:56;99153.00;;;13.63;45.68
58668;BME280;59852;43.086;25.634;2023-03-19T15:07:28;99151.72;;;13.57;46.22
58668;BME280;59852;43.086;25.634;2023-03-19T15:09:54;99149.06;;;13.57;45.91
58668;BME280;59852;43.086;25.634;2023-03-19T15:17:29;99139.72;;;13.53;46.17
58668;BME280;59852;43.086;25.634;2023-03-19T15:19:57;99152.16;;;13.51;46.75
58668;BME280;59852;43.086;25.634;2023-03-19T15:22:25;99147.16;;;13.48;46.58
58668;BME280;59852;43.086;25.634;2023-03-19T15:24:51;99151.56;;;13.47;47.20
58668;BME280;59852;43.086;25.634;2023-03-19T15:27:20;99149.41;;;13.41;46.88
58668;BME280;59852;43.086;25.634;2023-03-19T15:29:46;99146.91;;;13.40;47.09
58668;BME280;59852;43.086;25.634;2023-03-19T15:32:12;99145.22;;;13.39;46.58
58668;BME280;59852;43.086;25.634;2023-03-19T15:34:37;99147.59;;;13.42;47.15